Time;durP1;ratioP1;P1;durP2;ratioP2;P2;SDS_P1;SDS_P2;PMS_P1;PMS_P2;Temp;Humidity;BMP_temperature;BMP_pressure;BME280_temperature;BME280_humidity;BME280_pressure;Samples;Min_cycle;Max_cycle;Signal;HPM_P1;HPM_P2
2022/07/11 04:02:32;;;;;;;7.80;2.40;;;10.50;96.30;;;;;;5109937;23;20504;-75
2022/07/11 04:04:58;;;;;;;3.80;2.17;;;10.50;96.30;;;;;;4975764;28;20422;-75
2022/07/11 04:07:24;;;;;;;4.03;2.47;;;10.50;96.30;;;;;;4994331;28;20409;-78
2022/07/11 04:09:49;;;;;;;4.73;2.20;;;10.50;96.30;;;;;;4994673;28;20213;-75
2022/07/11 04:12:15;;;;;;;5.73;2.10;;;10.60;96.30;;;;;;4994860;28;20204;-74
2022/07/11 04:14:41;;;;;;;6.37;2.40;;;10.70;96.30;;;;;;4977380;28;20192;-74
2022/07/11 04:17:06;;;;;;;5.23;2.20;;;10.90;96.30;;;;;;4995514;28;20177;-74
2022/07/11 04:19:32;;;;;;;4.07;2.20;;;10.90;96.30;;;;;;4994401;28;20580;-74
2022/07/11 04:21:58;;;;;;;5.50;1.77;;;10.90;96.30;;;;;;4976955;28;20236;-74
2022/07/11 04:24:23;;;;;;;4.50;2.20;;;10.90;96.30;;;;;;4994622;28;20254;-75
2022/07/11 04:26:49;;;;;;;1.80;1.60;;;11.00;96.30;;;;;;4977064;28;20500;-75
2022/07/11 04:29:14;;;;;;;2.50;1.90;;;11.00;96.30;;;;;;4994447;28;20201;-75
2022/07/11 04:31:40;;;;;;;6.80;1.73;;;11.20;96.30;;;;;;4994403;28;20632;-76
2022/07/11 04:34:05;;;;;;;2.33;1.50;;;11.80;96.30;;;;;;4977306;28;20209;-75
2022/07/11 04:36:31;;;;;;;3.73;1.80;;;11.90;96.30;;;;;;4994789;28;20253;-75
2022/07/11 04:38:56;;;;;;;6.00;1.70;;;12.10;96.30;;;;;;4977216;28;20261;-75
2022/07/11 04:41:22;;;;;;;4.97;1.60;;;12.30;96.30;;;;;;4959536;28;20206;-74
2022/07/11 04:43:47;;;;;;;4.80;1.70;;;12.50;96.30;;;;;;4963513;28;20185;-74
2022/07/11 04:46:14;;;;;;;6.63;1.73;;;12.60;96.30;;;;;;4983635;28;20558;-74
2022/07/11 04:48:39;;;;;;;5.17;1.63;;;12.80;96.30;;;;;;4991463;28;20220;-74
2022/07/11 04:51:06;;;;;;;4.83;1.60;;;13.30;96.30;;;;;;4976744;28;20445;-74
2022/07/11 04:53:31;;;;;;;5.60;1.70;;;13.70;96.30;;;;;;4994445;28;20638;-75
2022/07/11 04:55:57;;;;;;;3.13;1.40;;;14.00;96.30;;;;;;4994092;28;20467;-76
2022/07/11 04:58:22;;;;;;;11.10;1.83;;;14.80;96.30;;;;;;4993687;28;20661;-75
2022/07/11 05:00:48;;;;;;;4.80;1.40;;;15.20;96.30;;;;;;4993544;28;20225;-74
2022/07/11 05:03:14;;;;;;;7.33;1.70;;;15.00;96.30;;;;;;4989494;28;20261;-77
2022/07/11 05:05:40;;;;;;;4.30;1.77;;;14.40;96.30;;;;;;4976311;28;20630;-74
2022/07/11 05:08:06;;;;;;;6.00;1.77;;;13.90;96.30;;;;;;4993324;28;20409;-75
2022/07/11 05:10:33;;;;;;;5.10;1.33;;;13.40;96.30;;;;;;4993943;28;20212;-75
2022/07/11 05:12:59;;;;;;;4.30;1.30;;;13.30;96.30;;;;;;4976967;28;20537;-74
2022/07/11 05:15:25;;;;;;;3.87;1.60;;;13.60;96.30;;;;;;4993535;28;20893;-75
2022/07/11 05:17:50;;;;;;;6.53;1.47;;;13.70;96.30;;;;;;4992777;28;20413;-74
2022/07/11 05:20:16;;;;;;;3.67;1.50;;;13.90;96.30;;;;;;4976021;28;20185;-76
2022/07/11 05:22:42;;;;;;;4.50;1.40;;;13.80;96.30;;;;;;4993244;28;20190;-74
2022/07/11 05:25:08;;;;;;;3.10;1.40;;;14.20;96.30;;;;;;4993894;28;20557;-74
2022/07/11 05:27:33;;;;;;;7.00;1.70;;;14.90;96.30;;;;;;4992913;28;20880;-74
2022/07/11 05:29:59;;;;;;;4.53;1.53;;;14.90;96.30;;;;;;4975927;28;20244;-74
2022/07/11 05:32:24;;;;;;;5.30;1.70;;;14.90;96.30;;;;;;4975908;28;20197;-75
2022/07/11 05:34:50;;;;;;;3.50;1.40;;;14.40;96.30;;;;;;4993380;28;20173;-74
2022/07/11 05:37:15;;;;;;;4.80;1.80;;;14.00;96.30;;;;;;4993260;28;20194;-74
2022/07/11 05:39:41;;;;;;;3.53;1.57;;;13.90;96.30;;;;;;4993053;28;20589;-74
2022/07/11 05:42:07;;;;;;;4.00;1.60;;;13.80;96.30;;;;;;4993062;28;20630;-74
2022/07/11 05:44:32;;;;;;;13.53;1.60;;;14.00;96.30;;;;;;4993155;28;20177;-77
2022/07/11 05:47:02;;;;;;;3.80;1.23;;;14.30;96.30;;;;;;4987290;28;20475;-74
2022/07/11 05:49:28;;;;;;;2.87;1.07;;;14.90;96.30;;;;;;4976039;28;20181;-74
2022/07/11 05:51:54;;;;;;;6.03;1.30;;;16.20;96.30;;;;;;4974133;28;20523;-74
2022/07/11 05:54:19;;;;;;;4.03;1.10;;;16.80;96.30;;;;;;4993015;28;20584;-74
2022/07/11 05:56:45;;;;;;;2.90;1.20;;;17.70;96.30;;;;;;4992952;28;20421;-76
2022/07/11 05:59:10;;;;;;;4.83;1.27;;;17.40;96.30;;;;;;5000060;28;20184;-74
2022/07/11 06:01:36;;;;;;;7.03;1.30;;;18.10;96.30;;;;;;4992727;28;20756;-74
2022/07/11 06:04:02;;;;;;;6.20;1.50;;;19.40;96.30;;;;;;4987340;28;20539;-76
2022/07/11 06:06:28;;;;;;;7.37;1.87;;;19.40;96.30;;;;;;4989411;28;20169;-74
2022/07/11 06:08:53;;;;;;;7.33;1.50;;;19.20;96.30;;;;;;4990172;28;20431;-74
2022/07/11 06:11:19;;;;;;;6.67;1.13;;;18.20;96.30;;;;;;4988945;28;20201;-73
2022/07/11 06:13:45;;;;;;;4.00;1.27;;;17.30;96.30;;;;;;4981960;28;20190;-74
2022/07/11 06:16:11;;;;;;;6.40;1.37;;;17.60;96.30;;;;;;4983825;28;20704;-74
2022/07/11 06:18:38;;;;;;;4.90;1.50;;;17.50;96.30;;;;;;4985579;28;20413;-73
2022/07/11 06:21:04;;;;;;;3.50;1.50;;;17.70;96.30;;;;;;4984442;28;20616;-74
2022/07/11 06:23:30;;;;;;;9.50;1.70;;;17.80;96.30;;;;;;4988920;28;20421;-74
2022/07/11 06:25:56;;;;;;;5.10;1.83;;;16.80;96.30;;;;;;4984669;28;20432;-73
2022/07/11 06:28:22;;;;;;;3.83;1.50;;;16.10;96.30;;;;;;4988713;28;20421;-75
2022/07/11 06:30:48;;;;;;;4.17;1.70;;;15.60;96.30;;;;;;4980895;28;20445;-74
2022/07/11 06:33:17;;;;;;;4.63;1.40;;;17.10;96.30;;;;;;4990103;28;20190;-77
2022/07/11 06:35:44;;;;;;;2.83;1.30;;;17.50;96.30;;;;;;4992082;28;20680;-77
2022/07/11 06:38:09;;;;;;;19.83;2.37;;;17.10;96.30;;;;;;4991840;28;20468;-77
2022/07/11 06:40:35;;;;;;;2.33;1.20;;;16.30;96.30;;;;;;4991971;28;20852;-76
2022/07/11 06:43:01;;;;;;;5.40;1.80;;;16.80;96.30;;;;;;4994681;28;20545;-77
2022/07/11 06:45:27;;;;;;;6.40;1.63;;;17.60;96.30;;;;;;4978635;28;20420;-78
2022/07/11 06:47:52;;;;;;;4.40;1.23;;;17.80;96.30;;;;;;4996116;28;20603;-75
2022/07/11 06:50:18;;;;;;;5.20;1.30;;;17.40;96.30;;;;;;4996009;28;20192;-74
2022/07/11 06:52:46;;;;;;;8.77;1.80;;;16.90;96.30;;;;;;4995966;28;20202;-74
2022/07/11 06:55:11;;;;;;;5.43;1.33;;;17.00;96.30;;;;;;4995997;28;20460;-75
2022/07/11 06:57:37;;;;;;;5.87;1.23;;;17.40;96.30;;;;;;4995797;28;20854;-75
2022/07/11 07:00:03;;;;;;;5.10;2.00;;;16.90;96.30;;;;;;4996055;28;20216;-74
2022/07/11 07:02:30;;;;;;;1.30;1.10;;;16.50;96.30;;;;;;4995618;28;20296;-74
2022/07/11 07:04:58;;;;;;;3.97;1.30;;;16.10;96.30;;;;;;4995933;28;20500;-77
2022/07/11 07:07:24;;;;;;;8.67;1.30;;;15.70;96.30;;;;;;4978417;28;20491;-80
2022/07/11 07:09:49;;;;;;;8.70;1.10;;;15.40;96.30;;;;;;4995592;28;20524;-74
2022/07/11 07:12:15;;;;;;;4.50;1.13;;;15.10;96.30;;;;;;4964159;28;20517;-75
2022/07/11 07:14:41;;;;;;;2.93;1.60;;;15.70;96.30;;;;;;4976270;28;20627;-75
2022/07/11 07:17:06;;;;;;;4.30;1.73;;;16.10;96.30;;;;;;4976333;28;20186;-75
2022/07/11 07:19:32;;;;;;;4.30;1.00;;;15.80;96.30;;;;;;4989256;28;20516;-76
2022/07/11 07:21:58;;;;;;;4.50;1.20;;;15.30;96.30;;;;;;4995907;28;20240;-74
2022/07/11 07:24:23;;;;;;;2.50;1.27;;;15.10;96.30;;;;;;4995873;28;20212;-74
2022/07/11 07:26:49;;;;;;;3.50;0.90;;;16.40;96.30;;;;;;4978100;28;20188;-74
2022/07/11 07:29:14;;;;;;;3.70;1.17;;;18.60;96.30;;;;;;4995301;28;20641;-75
2022/07/11 07:31:40;;;;;;;3.53;0.80;;;20.30;96.30;;;;;;4977863;28;20201;-75
2022/07/11 07:34:05;;;;;;;1.97;0.90;;;21.50;93.80;;;;;;4995486;28;20174;-75
2022/07/11 07:36:31;;;;;;;2.33;0.80;;;21.40;92.50;;;;;;4995427;28;20182;-75
2022/07/11 07:38:56;;;;;;;4.93;1.13;;;20.50;92.90;;;;;;4995031;28;20188;-77
2022/07/11 07:41:22;;;;;;;1.47;0.70;;;18.70;95.00;;;;;;4980068;28;20713;-74
2022/07/11 07:43:49;;;;;;;3.23;0.80;;;17.70;96.30;;;;;;4977635;28;20264;-74
2022/07/11 07:46:15;;;;;;;2.07;0.70;;;17.90;96.30;;;;;;4995283;28;20176;-74
2022/07/11 07:48:40;;;;;;;1.53;0.80;;;18.90;96.30;;;;;;4994766;28;20900;-75
2022/07/11 07:51:06;;;;;;;3.33;0.90;;;20.00;93.40;;;;;;4995045;28;20459;-74
2022/07/11 07:53:32;;;;;;;1.10;0.60;;;20.80;92.00;;;;;;4994857;28;20252;-74
2022/07/11 07:55:58;;;;;;;5.27;0.90;;;20.50;89.90;;;;;;4977464;28;21004;-75
2022/07/11 07:58:23;;;;;;;2.53;0.70;;;20.80;89.60;;;;;;4994735;28;20252;-77
2022/07/11 08:03:33;;;;;;;4.60;1.20;;;20.80;87.90;;;;;;4994960;28;20244;-74
2022/07/11 08:05:58;;;;;;;4.47;0.80;;;20.50;89.20;;;;;;4995690;28;20449;-75
2022/07/11 08:08:24;;;;;;;3.07;0.87;;;21.00;90.00;;;;;;4994772;28;20196;-75
2022/07/11 08:10:50;;;;;;;3.37;0.90;;;21.50;86.70;;;;;;4978550;28;20240;-74
2022/07/11 08:13:16;;;;;;;2.13;1.10;;;21.30;90.80;;;;;;4981112;28;20675;-77
2022/07/11 08:15:41;;;;;;;1.57;0.80;;;21.00;88.20;;;;;;4994811;28;20452;-74
2022/07/11 08:18:07;;;;;;;1.40;0.80;;;21.00;86.00;;;;;;4994547;28;20209;-74
2022/07/11 08:20:33;;;;;;;2.07;1.10;;;19.70;88.90;;;;;;4994557;28;20198;-74
2022/07/11 08:23:03;;;;;;;2.20;0.90;;;18.90;94.30;;;;;;4994560;28;20479;-74
2022/07/11 08:25:30;;;;;;;5.63;0.80;;;19.60;96.20;;;;;;4994448;28;20269;-74
2022/07/11 08:27:55;;;;;;;2.37;0.87;;;20.40;91.40;;;;;;4994243;28;20832;-74
2022/07/11 08:30:21;;;;;;;1.20;0.70;;;22.30;91.10;;;;;;4994536;28;20408;-74
2022/07/11 08:32:46;;;;;;;1.60;0.80;;;22.80;84.60;;;;;;4994235;28;20204;-77
2022/07/11 08:35:15;;;;;;;2.60;0.90;;;22.30;84.90;;;;;;4994515;28;20170;-74
2022/07/11 08:37:41;;;;;;;3.67;0.90;;;21.80;86.50;;;;;;4994159;28;20213;-74
2022/07/11 08:40:07;;;;;;;3.40;0.90;;;21.00;86.80;;;;;;4994592;28;20457;-74
2022/07/11 08:42:39;;;;;;;23.23;10.00;;;21.10;88.00;;;;;;4993754;28;20228;-74
2022/07/11 08:45:05;;;;;;;3.23;1.70;;;20.80;85.30;;;;;;4994027;28;20496;-74
2022/07/11 08:47:32;;;;;;;6.07;1.97;;;19.60;91.50;;;;;;4978539;28;20940;-74
2022/07/11 08:49:59;;;;;;;3.83;1.17;;;19.70;92.50;;;;;;4974378;28;20505;-76
2022/07/11 08:52:24;;;;;;;1.50;0.80;;;20.10;89.00;;;;;;4990071;28;21209;-74
2022/07/11 08:54:51;;;;;;;1.83;0.90;;;19.30;90.50;;;;;;4993845;28;20503;-74
2022/07/11 08:57:18;;;;;;;2.57;1.47;;;18.30;93.70;;;;;;4993718;28;20208;-76
2022/07/11 08:59:47;;;;;;;5.03;1.00;;;18.00;95.80;;;;;;4991919;28;20564;-77
2022/07/11 09:02:13;;;;;;;2.13;0.80;;;17.70;96.30;;;;;;4993508;28;20504;-74
2022/07/11 09:04:39;;;;;;;2.73;0.90;;;18.30;96.30;;;;;;4994506;28;20409;-74
2022/07/11 09:07:06;;;;;;;3.73;0.87;;;19.60;93.60;;;;;;5012049;28;20470;-74
2022/07/11 09:09:31;;;;;;;2.70;1.10;;;19.90;91.30;;;;;;4976048;28;20521;-74
2022/07/11 09:11:58;;;;;;;3.07;0.90;;;20.80;89.80;;;;;;4993486;28;20889;-74
2022/07/11 09:14:28;;;;;;;2.70;0.67;;;20.80;86.00;;;;;;4993552;28;20244;-74
2022/07/11 09:16:56;;;;;;;4.10;1.10;;;20.30;89.20;;;;;;4993473;28;20779;-75
2022/07/11 09:19:24;;;;;;;3.33;0.97;;;19.60;90.50;;;;;;5010165;28;20416;-74
2022/07/11 09:27:50;;;;;;;2.77;1.00;;;18.50;96.00;;;;;;5013026;28;20396;-75
2022/07/11 09:30:28;;;;;;;2.50;0.80;;;17.90;96.30;;;;;;4981064;28;20765;-74
2022/07/11 09:32:56;;;;;;;4.43;1.83;;;17.50;96.30;;;;;;4993245;28;20389;-74
2022/07/11 09:35:27;;;;;;;3.23;1.10;;;18.10;96.30;;;;;;4993291;28;20873;-74
2022/07/11 09:37:53;;;;;;;1.50;1.00;;;20.00;96.30;;;;;;4992928;28;20492;-74
2022/07/11 09:40:19;;;;;;;2.10;0.90;;;20.50;92.70;;;;;;4966905;28;20529;-74
2022/07/11 09:42:48;;;;;;;1.97;0.80;;;20.30;83.40;;;;;;4955834;28;20457;-74
2022/07/11 09:45:15;;;;;;;5.17;1.00;;;20.30;87.50;;;;;;4973632;28;20504;-74
2022/07/11 09:47:45;;;;;;;2.50;0.80;;;21.60;91.30;;;;;;4973359;28;20414;-74
2022/07/11 09:50:12;;;;;;;1.97;0.90;;;20.30;85.80;;;;;;4973563;28;20409;-74
2022/07/11 09:52:38;;;;;;;3.13;1.23;;;19.60;89.60;;;;;;4963020;28;20437;-74
2022/07/11 09:55:05;;;;;;;2.40;1.30;;;18.70;90.40;;;;;;4975467;28;20420;-74
2022/07/11 09:57:35;;;;;;;2.30;1.20;;;18.30;91.90;;;;;;4975298;28;20212;-75
2022/07/11 10:00:03;;;;;;;3.77;1.17;;;19.40;93.90;;;;;;4992874;28;20447;-74
2022/07/11 10:02:28;;;;;;;6.10;2.30;;;20.70;89.80;;;;;;4975113;28;20472;-74
2022/07/11 10:04:54;;;;;;;1.10;0.80;;;21.70;90.30;;;;;;4992869;28;20419;-74
2022/07/11 10:07:20;;;;;;;1.83;1.23;;;22.20;82.30;;;;;;4992735;28;20232;-76
2022/07/11 10:09:45;;;;;;;1.63;0.70;;;22.90;84.60;;;;;;4975101;28;20669;-74
2022/07/11 10:12:11;;;;;;;1.00;0.83;;;23.10;81.90;;;;;;4992683;28;20201;-75
2022/07/11 10:14:38;;;;;;;2.50;1.20;;;22.50;75.40;;;;;;4992781;28;20641;-74
2022/07/11 10:17:20;;;;;;;1.10;0.80;;;22.30;85.10;;;;;;4993959;28;20189;-74
2022/07/11 10:20:14;;;;;;;2.10;0.80;;;21.50;79.50;;;;;;4980159;28;20837;-75
2022/07/11 10:25:25;;;;;;;1.67;0.80;;;20.00;88.20;;;;;;5490336;22;20499;-78
2022/07/11 10:28:19;;;;;;;1.00;0.70;;;21.00;89.50;;;;;;4995969;28;20929;-78
2022/07/11 10:30:48;;;;;;;2.53;0.90;;;21.60;85.20;;;;;;4993816;28;20411;-78
2022/07/11 10:33:15;;;;;;;1.40;0.70;;;20.30;82.90;;;;;;4976854;28;20510;-78
2022/07/11 10:35:46;;;;;;;1.30;0.70;;;20.40;84.90;;;;;;4976864;28;20414;-78
2022/07/11 10:38:12;;;;;;;1.20;0.80;;;20.60;83.10;;;;;;4976623;28;20421;-78
2022/07/11 10:40:48;;;;;;;3.53;0.87;;;20.70;87.30;;;;;;4965225;28;20450;-78
2022/07/11 10:43:32;;;;;;;3.43;0.77;;;21.40;84.40;;;;;;4957393;29;20406;-78
2022/07/11 10:46:05;;;;;;;3.23;1.10;;;22.20;80.40;;;;;;4957432;29;20827;-77
2022/07/11 10:48:34;;;;;;;3.03;1.33;;;23.00;83.00;;;;;;4957076;29;20414;-77
2022/07/11 10:51:24;;;;;;;3.20;0.80;;;23.00;77.50;;;;;;4941212;28;21016;-77
2022/07/11 10:53:51;;;;;;;1.90;0.70;;;22.20;81.50;;;;;;4976110;28;20413;-77
2022/07/11 10:56:25;;;;;;;3.30;0.93;;;21.50;81.20;;;;;;4975673;28;20413;-77
2022/07/11 10:59:19;;;;;;;1.20;0.77;;;20.40;83.30;;;;;;4976299;28;20962;-77
2022/07/11 11:02:09;;;;;;;4.40;1.00;;;19.60;86.20;;;;;;4958302;28;20497;-77
2022/07/11 11:04:58;;;;;;;1.40;0.80;;;20.60;87.20;;;;;;4959147;28;20429;-77
2022/07/11 11:07:41;;;;;;;5.23;1.03;;;21.50;86.20;;;;;;4976354;28;20563;-77
2022/07/11 11:10:19;;;;;;;2.13;0.80;;;22.10;85.60;;;;;;4965661;28;20473;-77
2022/07/11 11:13:06;;;;;;;1.10;0.80;;;22.20;82.90;;;;;;4954672;28;20445;-77
2022/07/11 11:15:33;;;;;;;3.70;0.70;;;22.10;87.20;;;;;;4976407;28;20420;-78
2022/07/11 11:18:24;;;;;;;2.23;0.90;;;22.60;87.70;;;;;;4976795;28;20806;-78
2022/07/11 11:21:06;;;;;;;3.30;1.00;;;22.20;85.40;;;;;;4976755;28;21004;-77
2022/07/11 11:23:37;;;;;;;4.93;0.80;;;22.20;81.40;;;;;;4958663;28;20764;-77
2022/07/11 11:26:06;;;;;;;4.17;0.73;;;21.40;83.70;;;;;;4975862;28;20588;-77
2022/07/11 11:28:32;;;;;;;1.13;0.70;;;21.30;83.20;;;;;;4975089;28;20925;-77
2022/07/11 11:30:59;;;;;;;1.13;0.77;;;21.50;82.80;;;;;;4975823;28;20437;-77
2022/07/11 11:33:26;;;;;;;1.43;0.70;;;21.10;83.40;;;;;;4975598;28;20555;-77
2022/07/11 11:36:09;;;;;;;1.13;0.80;;;20.70;82.60;;;;;;4975844;28;20442;-77
2022/07/11 11:38:39;;;;;;;3.97;0.73;;;21.10;86.40;;;;;;4975400;28;20413;-77
2022/07/11 11:41:06;;;;;;;1.67;0.70;;;21.80;83.90;;;;;;4949981;28;20556;-77
2022/07/11 11:43:32;;;;;;;1.73;0.80;;;21.90;85.60;;;;;;4975587;28;20972;-77
2022/07/11 11:45:58;;;;;;;9.90;0.90;;;22.00;80.60;;;;;;4975589;28;20410;-77
2022/07/11 11:48:31;;;;;;;2.20;0.80;;;22.20;82.50;;;;;;4957868;28;20413;-77
2022/07/11 11:51:12;;;;;;;1.53;0.70;;;22.50;84.40;;;;;;4975368;28;20209;-77
2022/07/11 11:53:40;;;;;;;1.10;0.70;;;22.90;83.00;;;;;;4975424;28;20413;-77
2022/07/11 11:56:15;;;;;;;3.20;1.20;;;22.90;79.70;;;;;;4958067;28;20537;-77
2022/07/11 11:58:44;;;;;;;2.57;0.80;;;23.30;83.60;;;;;;4975274;28;20539;-77
2022/07/11 12:01:11;;;;;;;2.73;0.90;;;22.50;81.20;;;;;;4975169;28;20472;-77
2022/07/11 12:03:46;;;;;;;1.57;0.90;;;22.20;83.80;;;;;;4975644;28;20763;-77
2022/07/11 12:06:12;;;;;;;1.77;0.70;;;22.00;81.80;;;;;;4975180;28;20421;-77
2022/07/11 12:08:37;;;;;;;1.47;0.80;;;22.20;86.70;;;;;;4974769;28;20410;-77
2022/07/11 12:11:03;;;;;;;1.90;0.90;;;22.50;82.30;;;;;;4956911;28;20210;-77
2022/07/11 12:13:28;;;;;;;1.00;0.70;;;22.80;79.10;;;;;;4955789;29;20226;-77
2022/07/11 12:18:38;;;;;;;1.83;0.70;;;21.20;81.00;;;;;;4955481;29;20190;-77
2022/07/11 12:21:12;;;;;;;6.20;0.90;;;20.80;85.00;;;;;;4955485;28;20466;-77
2022/07/11 12:23:38;;;;;;;2.07;1.00;;;21.50;85.50;;;;;;4955497;29;20587;-74
2022/07/11 12:26:03;;;;;;;1.20;0.70;;;22.40;83.20;;;;;;4938376;29;20518;-74
2022/07/11 12:28:29;;;;;;;1.60;0.70;;;23.40;80.30;;;;;;4955425;29;20647;-74
2022/07/11 12:30:56;;;;;;;3.30;0.80;;;23.80;80.60;;;;;;4955567;28;20568;-74
2022/07/11 12:33:23;;;;;;;1.70;0.73;;;23.50;80.20;;;;;;4955541;29;20167;-74
2022/07/11 12:36:12;;;;;;;5.23;1.00;;;23.40;84.10;;;;;;4955410;29;20414;-75
2022/07/11 12:38:53;;;;;;;1.10;0.70;;;23.80;80.70;;;;;;4937935;29;20981;-74
2022/07/11 12:41:19;;;;;;;3.27;0.80;;;23.70;78.90;;;;;;4971576;28;20831;-75
2022/07/11 12:46:34;;;;;;;4.83;0.80;;;22.10;78.40;;;;;;4974549;28;20166;-74
2022/07/11 12:49:02;;;;;;;1.00;0.77;;;21.60;81.90;;;;;;4974338;28;21006;-74
2022/07/11 12:51:28;;;;;;;4.67;0.87;;;22.00;82.80;;;;;;4956969;28;20437;-74
2022/07/11 12:54:04;;;;;;;1.63;0.60;;;22.90;82.90;;;;;;4957255;28;20417;-75
2022/07/11 12:56:31;;;;;;;2.17;0.83;;;23.40;79.70;;;;;;4974340;28;20492;-75
2022/07/11 12:58:57;;;;;;;1.87;0.77;;;23.60;80.70;;;;;;4956975;28;20456;-74
2022/07/11 13:01:22;;;;;;;1.10;0.80;;;24.00;79.10;;;;;;4974123;28;20475;-74
2022/07/11 13:03:48;;;;;;;1.00;0.70;;;24.00;78.20;;;;;;4957153;28;20410;-75
2022/07/11 13:06:15;;;;;;;1.20;0.70;;;24.00;73.90;;;;;;4974434;28;20634;-74
2022/07/11 13:08:47;;;;;;;2.60;0.77;;;23.10;81.40;;;;;;4974094;28;20179;-74
2022/07/11 13:11:16;;;;;;;1.03;0.60;;;23.10;80.50;;;;;;4974111;28;20468;-75
2022/07/11 13:13:43;;;;;;;1.43;0.80;;;23.20;78.90;;;;;;4956910;28;20918;-75
2022/07/11 13:16:10;;;;;;;4.20;1.03;;;23.30;80.00;;;;;;4974223;28;20781;-74
2022/07/11 13:18:36;;;;;;;2.10;0.60;;;23.80;77.30;;;;;;4956724;28;20424;-74
2022/07/11 13:21:03;;;;;;;2.03;0.80;;;24.10;76.40;;;;;;4974015;28;20485;-74
2022/07/11 13:23:28;;;;;;;1.50;0.80;;;24.00;76.00;;;;;;4974034;28;20193;-74
2022/07/11 13:25:55;;;;;;;1.93;0.70;;;24.40;78.40;;;;;;4974104;28;20437;-74
2022/07/11 13:28:22;;;;;;;1.40;0.70;;;24.20;76.40;;;;;;4956609;28;20170;-74
2022/07/11 13:30:48;;;;;;;1.90;0.80;;;24.20;78.40;;;;;;4974055;28;20444;-74
2022/07/11 13:33:13;;;;;;;1.30;0.80;;;23.30;77.10;;;;;;4974254;28;20489;-74
2022/07/11 13:35:39;;;;;;;2.70;0.90;;;21.90;80.00;;;;;;4973720;28;20178;-75
2022/07/11 13:38:04;;;;;;;2.33;0.70;;;21.50;81.40;;;;;;4973389;28;20512;-74
2022/07/11 13:40:32;;;;;;;1.50;0.90;;;21.10;84.40;;;;;;4956321;28;20179;-74
2022/07/11 13:42:58;;;;;;;0.90;0.70;;;21.00;83.60;;;;;;4973795;28;20193;-74
2022/07/11 13:45:24;;;;;;;4.90;0.80;;;20.60;82.80;;;;;;4973706;28;20879;-74
2022/07/11 13:47:50;;;;;;;4.30;0.90;;;20.60;82.50;;;;;;4973601;28;20405;-74
2022/07/11 13:50:16;;;;;;;4.40;0.70;;;21.20;80.90;;;;;;4973147;28;20936;-74
2022/07/11 13:52:46;;;;;;;5.33;1.03;;;21.70;83.00;;;;;;4973245;28;20297;-74
2022/07/11 13:55:12;;;;;;;3.93;0.80;;;22.80;84.90;;;;;;4973461;28;20424;-74
2022/07/11 13:57:38;;;;;;;1.10;0.60;;;22.80;80.50;;;;;;4956061;28;20614;-74
2022/07/11 14:00:05;;;;;;;5.13;1.53;;;22.20;81.40;;;;;;4972588;28;20224;-74
2022/07/11 14:02:31;;;;;;;1.47;0.80;;;21.30;83.30;;;;;;4973372;28;20209;-74
2022/07/11 14:04:58;;;;;;;3.93;0.90;;;20.60;83.50;;;;;;4955840;28;20430;-74
2022/07/11 14:07:23;;;;;;;2.23;0.80;;;20.40;86.80;;;;;;4973114;28;20533;-76
2022/07/11 14:09:49;;;;;;;2.10;0.97;;;21.10;83.30;;;;;;4955724;28;20925;-74
2022/07/11 14:12:14;;;;;;;2.50;0.60;;;21.90;82.10;;;;;;4973158;28;20202;-74
2022/07/11 14:14:40;;;;;;;1.07;0.73;;;22.20;81.20;;;;;;4973239;28;20182;-74
2022/07/11 14:17:06;;;;;;;1.77;0.90;;;22.20;81.10;;;;;;4973109;28;20767;-74
2022/07/11 14:19:32;;;;;;;6.23;0.70;;;21.70;83.40;;;;;;4972832;28;20182;-74
2022/07/11 14:21:59;;;;;;;5.20;2.03;;;21.50;81.10;;;;;;4973105;28;20218;-75
2022/07/11 14:24:26;;;;;;;3.40;0.80;;;21.50;83.50;;;;;;4973198;28;20811;-76
2022/07/11 14:26:52;;;;;;;1.47;1.13;;;21.70;84.30;;;;;;4973283;28;20878;-73
2022/07/11 14:29:17;;;;;;;1.67;0.90;;;22.00;79.10;;;;;;4973941;28;20437;-73
2022/07/11 14:31:43;;;;;;;0.90;0.60;;;22.40;81.70;;;;;;4973581;28;20569;-73
2022/07/11 14:34:09;;;;;;;1.87;0.70;;;23.10;80.10;;;;;;4973276;28;20254;-74
2022/07/11 14:36:35;;;;;;;2.20;0.70;;;23.10;81.00;;;;;;4974672;28;20504;-74
2022/07/11 14:39:00;;;;;;;7.73;0.70;;;23.20;79.50;;;;;;4972821;28;20610;-73
2022/07/11 14:41:26;;;;;;;1.87;0.80;;;23.70;77.90;;;;;;4955131;28;20215;-73
2022/07/11 14:43:51;;;;;;;0.80;0.60;;;23.80;76.80;;;;;;4953717;29;20191;-73
2022/07/11 14:46:17;;;;;;;1.30;0.80;;;24.20;77.20;;;;;;4936447;29;20180;-73
2022/07/11 14:48:43;;;;;;;1.83;0.80;;;24.00;74.40;;;;;;4953686;29;20210;-73
2022/07/11 14:51:09;;;;;;;1.67;0.80;;;23.30;78.30;;;;;;4953550;28;20273;-72
2022/07/11 14:53:36;;;;;;;1.97;0.90;;;22.80;76.80;;;;;;4953568;29;20478;-73
2022/07/11 14:56:01;;;;;;;5.13;0.80;;;23.00;77.90;;;;;;4953708;29;20198;-73
2022/07/11 14:58:27;;;;;;;2.13;0.80;;;23.30;75.90;;;;;;4936100;29;20505;-73
2022/07/11 15:00:52;;;;;;;1.20;0.70;;;23.40;76.50;;;;;;4953404;28;20238;-73
2022/07/11 15:06:02;;;;;;;1.27;0.60;;;22.80;75.20;;;;;;4957076;29;20678;-73
2022/07/11 15:13:55;;;;;;;5.40;1.10;;;23.60;77.60;;;;;;4975784;28;20787;-73
2022/07/11 15:16:21;;;;;;;4.70;1.13;;;23.80;78.50;;;;;;4976230;28;20413;-73
2022/07/11 15:18:47;;;;;;;2.27;0.70;;;23.90;74.20;;;;;;4975842;28;20174;-73
2022/07/11 15:21:13;;;;;;;1.10;0.60;;;23.90;77.00;;;;;;4976060;28;20476;-73
2022/07/11 15:23:38;;;;;;;2.03;0.80;;;23.80;77.30;;;;;;4976312;28;20665;-73
2022/07/11 15:26:04;;;;;;;3.47;0.70;;;23.20;77.20;;;;;;4976123;28;20312;-73
2022/07/11 15:28:30;;;;;;;4.00;0.90;;;23.20;77.00;;;;;;4975723;28;20185;-73
2022/07/11 15:30:55;;;;;;;6.80;0.90;;;23.30;74.30;;;;;;4975926;28;20202;-73
2022/07/11 15:33:21;;;;;;;6.30;0.70;;;23.40;74.90;;;;;;4975740;28;20717;-74
2022/07/11 15:35:52;;;;;;;3.63;0.70;;;23.30;77.20;;;;;;4976205;28;20213;-73
2022/07/11 15:38:21;;;;;;;3.43;0.73;;;23.40;76.10;;;;;;4974190;28;20213;-73
2022/07/11 15:40:46;;;;;;;7.80;1.40;;;22.90;76.50;;;;;;4946484;28;20524;-74
2022/07/11 15:43:13;;;;;;;1.27;0.93;;;22.60;76.80;;;;;;4956906;29;20418;-73
2022/07/11 15:45:40;;;;;;;2.40;0.70;;;22.80;77.90;;;;;;4956705;29;20194;-73
2022/07/11 15:48:06;;;;;;;4.40;0.70;;;23.00;73.70;;;;;;4956566;29;20522;-74
2022/07/11 15:50:31;;;;;;;4.10;0.87;;;23.00;76.00;;;;;;4943663;28;20517;-73
2022/07/11 15:52:57;;;;;;;1.83;0.80;;;23.20;75.90;;;;;;4958847;28;20414;-73
2022/07/11 15:55:22;;;;;;;1.10;0.80;;;23.00;74.20;;;;;;4977815;28;20170;-73
2022/07/11 15:57:48;;;;;;;1.00;0.70;;;22.90;75.00;;;;;;4979657;28;20669;-76
2022/07/11 16:00:14;;;;;;;1.60;0.80;;;22.80;74.60;;;;;;4979882;28;20243;-75
2022/07/11 16:02:40;;;;;;;1.40;0.80;;;22.60;74.90;;;;;;4960969;28;20220;-73
2022/07/11 16:05:07;;;;;;;1.70;0.80;;;22.30;73.50;;;;;;4977444;28;20930;-74
2022/07/11 16:07:33;;;;;;;1.13;0.70;;;21.90;75.00;;;;;;4977071;28;20494;-74
2022/07/11 16:10:01;;;;;;;3.83;0.70;;;21.60;74.30;;;;;;4972248;28;20425;-73
2022/07/11 16:12:27;;;;;;;2.80;0.70;;;20.80;75.80;;;;;;4976469;28;20969;-73
2022/07/11 16:14:53;;;;;;;1.13;0.70;;;20.90;77.80;;;;;;4975247;28;20416;-73
2022/07/11 16:17:18;;;;;;;2.10;0.70;;;21.10;77.90;;;;;;4976467;28;20417;-75
2022/07/11 16:19:45;;;;;;;1.10;0.73;;;20.90;76.00;;;;;;4976166;28;20646;-73
2022/07/11 16:22:11;;;;;;;1.30;0.70;;;20.40;78.80;;;;;;4976077;28;20222;-73
2022/07/11 16:24:36;;;;;;;1.93;0.70;;;20.70;78.00;;;;;;4974410;28;20461;-73
2022/07/11 16:27:02;;;;;;;1.17;0.70;;;20.90;80.10;;;;;;4975001;28;20170;-74
2022/07/11 16:29:27;;;;;;;4.33;0.67;;;21.20;76.60;;;;;;4974888;28;20221;-73
2022/07/11 16:31:53;;;;;;;1.03;0.60;;;21.30;77.20;;;;;;4958514;28;20198;-72
2022/07/11 16:34:18;;;;;;;2.43;0.90;;;21.30;75.60;;;;;;4975434;28;20270;-73
2022/07/11 16:36:44;;;;;;;3.73;0.70;;;21.30;77.10;;;;;;4974882;28;20174;-73
2022/07/11 16:44:37;;;;;;;1.40;0.70;;;21.10;76.30;;;;;;4962009;28;20397;-73
2022/07/11 16:47:03;;;;;;;1.20;0.70;;;21.30;78.00;;;;;;4955498;29;20501;-73
2022/07/11 16:49:28;;;;;;;6.43;0.80;;;21.30;78.70;;;;;;4954784;29;20186;-73
2022/07/11 16:51:54;;;;;;;3.33;0.73;;;21.50;76.90;;;;;;4955270;28;20211;-73
2022/07/11 16:54:19;;;;;;;1.87;0.80;;;21.40;75.90;;;;;;4967756;28;20240;-72
2022/07/11 16:56:45;;;;;;;3.70;0.80;;;21.50;74.80;;;;;;4957142;28;20236;-72
2022/07/11 16:59:11;;;;;;;2.13;0.67;;;21.40;75.80;;;;;;4973681;28;20174;-73
2022/07/11 17:01:36;;;;;;;1.10;0.50;;;21.20;75.60;;;;;;4973991;28;20214;-72
2022/07/11 17:04:02;;;;;;;3.17;0.90;;;21.10;76.20;;;;;;4973963;28;20229;-73
2022/07/11 17:06:28;;;;;;;1.00;0.70;;;21.00;76.70;;;;;;4974285;28;20173;-73
2022/07/11 17:08:53;;;;;;;1.00;0.70;;;21.10;76.20;;;;;;4972775;28;20619;-73
2022/07/11 17:11:19;;;;;;;1.57;0.73;;;21.10;76.90;;;;;;4954850;28;20205;-73
2022/07/11 17:13:45;;;;;;;1.67;0.80;;;20.50;78.30;;;;;;4968417;28;20642;-73
2022/07/11 17:16:11;;;;;;;6.67;1.40;;;19.90;79.30;;;;;;4956621;28;20484;-73
2022/07/11 17:18:37;;;;;;;0.90;0.60;;;19.30;80.40;;;;;;4973760;28;20178;-73